createdAt,value
2023-02-13T00:00:49.801Z,2.78
2023-02-13T00:03:16.474Z,2.77
2023-02-13T00:05:43.173Z,2.75
2023-02-13T00:08:09.905Z,2.74
2023-02-13T00:10:39.808Z,2.73
2023-02-13T00:13:06.490Z,2.73
2023-02-13T00:15:33.801Z,2.74
2023-02-13T00:18:02.153Z,2.74
2023-02-13T00:20:28.829Z,2.76
2023-02-13T00:22:55.523Z,2.77
2023-02-13T00:25:22.259Z,2.78
2023-02-13T00:27:51.561Z,2.79
2023-02-13T00:30:18.598Z,2.79
2023-02-13T00:32:45.307Z,2.77
2023-02-13T00:35:12.039Z,2.77
2023-02-13T00:37:38.670Z,2.77
2023-02-13T00:40:05.759Z,2.77
2023-02-13T00:42:32.442Z,2.75
2023-02-13T00:44:59.106Z,2.74
2023-02-13T00:47:25.777Z,2.74
2023-02-13T00:49:52.434Z,2.73
2023-02-13T00:52:19.130Z,2.72
2023-02-13T00:54:47.344Z,2.71
2023-02-13T00:57:14.082Z,2.70
2023-02-13T00:59:40.713Z,2.68
2023-02-13T01:02:07.454Z,2.66
2023-02-13T01:04:34.172Z,2.63
2023-02-13T01:07:00.882Z,2.61
2023-02-13T01:09:27.618Z,2.60
2023-02-13T01:11:54.394Z,2.58
2023-02-13T01:14:21.186Z,2.59
2023-02-13T01:16:47.891Z,2.57
2023-02-13T01:19:14.546Z,2.55
2023-02-13T01:21:43.295Z,2.53
2023-02-13T01:24:09.995Z,2.50
2023-02-13T01:26:36.773Z,2.49
2023-02-13T01:29:03.606Z,2.47
2023-02-13T01:31:30.367Z,2.44
2023-02-13T01:33:58.263Z,2.41
2023-02-13T01:36:26.034Z,2.40
2023-02-13T01:38:54.787Z,2.38
2023-02-13T01:41:21.822Z,2.38
2023-02-13T01:43:50.776Z,2.36
2023-02-13T01:46:33.651Z,2.37
2023-02-13T01:49:12.536Z,2.34
2023-02-13T01:51:40.733Z,2.35
2023-02-13T01:54:17.701Z,2.36
2023-02-13T01:56:51.970Z,2.37
2023-02-13T01:59:26.983Z,2.38
2023-02-13T02:01:54.800Z,2.41
2023-02-13T02:04:32.170Z,2.41
2023-02-13T02:07:17.778Z,2.41
2023-02-13T02:09:46.152Z,2.40
2023-02-13T02:12:27.504Z,2.41
2023-02-13T02:14:56.914Z,2.41
2023-02-13T02:17:26.202Z,2.41
2023-02-13T02:20:30.002Z,2.43
2023-02-13T02:23:34.393Z,2.43
2023-02-13T02:26:03.749Z,2.43
2023-02-13T02:28:47.032Z,2.42
2023-02-13T02:31:50.959Z,2.42
2023-02-13T02:34:23.243Z,2.41
2023-02-13T02:37:01.633Z,2.40
2023-02-13T02:39:34.144Z,2.40
2023-02-13T02:42:26.164Z,2.39
2023-02-13T02:45:20.128Z,2.40
2023-02-13T02:48:15.277Z,2.41
2023-02-13T02:50:58.212Z,2.42
2023-02-13T02:53:50.022Z,2.44
2023-02-13T02:56:42.629Z,2.45
2023-02-13T02:59:34.937Z,2.43
2023-02-13T03:02:21.986Z,2.45
2023-02-13T03:05:11.742Z,2.48
2023-02-13T03:07:38.452Z,2.49
2023-02-13T03:10:30.676Z,2.49
2023-02-13T03:13:21.580Z,2.49
2023-02-13T03:16:15.273Z,2.50
2023-02-13T03:19:05.107Z,2.51
2023-02-13T03:22:12.181Z,2.52
2023-02-13T03:24:38.767Z,2.53
2023-02-13T03:27:09.557Z,2.55
2023-02-13T03:30:23.908Z,2.58
2023-02-13T03:33:04.079Z,2.59
2023-02-13T03:36:12.434Z,2.60
2023-02-13T03:38:50.493Z,2.60
2023-02-13T03:41:25.271Z,2.58
2023-02-13T03:44:16.565Z,2.59
2023-02-13T03:46:47.016Z,2.58
2023-02-13T03:50:05.430Z,2.57
2023-02-13T03:52:53.869Z,2.60
2023-02-13T03:55:46.390Z,2.59
2023-02-13T03:58:38.472Z,2.59
2023-02-13T04:01:08.154Z,2.59
2023-02-13T04:04:03.917Z,2.59
2023-02-13T04:06:34.983Z,2.56
2023-02-13T04:09:01.929Z,2.55
2023-02-13T04:11:35.575Z,2.55
2023-02-13T04:14:16.180Z,2.55
2023-02-13T04:16:48.327Z,2.55
2023-02-13T04:19:16.412Z,2.56
2023-02-13T04:21:43.149Z,2.56
2023-02-13T04:24:10.376Z,2.57
2023-02-13T04:26:42.901Z,2.56
2023-02-13T04:29:09.988Z,2.57
2023-02-13T04:31:36.826Z,2.58
2023-02-13T04:34:03.563Z,2.61
2023-02-13T04:36:30.536Z,2.64
2023-02-13T04:38:57.267Z,2.65
2023-02-13T04:41:24.025Z,2.66
2023-02-13T04:43:52.504Z,2.65
2023-02-13T04:46:19.365Z,2.66
2023-02-13T04:48:46.035Z,2.67
2023-02-13T04:51:12.756Z,2.69
2023-02-13T04:53:39.472Z,2.70
2023-02-13T04:56:06.412Z,2.71
2023-02-13T04:58:33.170Z,2.71
2023-02-13T05:01:00.181Z,2.74
2023-02-13T05:03:26.942Z,2.76
2023-02-13T05:05:53.573Z,2.76
2023-02-13T05:08:20.255Z,2.75
2023-02-13T05:10:46.965Z,2.74
2023-02-13T05:13:14.115Z,2.75
2023-02-13T05:15:40.811Z,2.74
2023-02-13T05:18:08.887Z,2.73
2023-02-13T05:20:35.533Z,2.73
2023-02-13T05:23:21.038Z,2.73
2023-02-13T05:25:47.688Z,2.72
2023-02-13T05:28:33.345Z,2.72
2023-02-13T05:31:00.574Z,2.71
2023-02-13T05:33:27.691Z,2.70
2023-02-13T05:35:54.517Z,2.70
2023-02-13T05:38:21.295Z,2.70
2023-02-13T05:40:47.941Z,2.69
2023-02-13T05:43:14.583Z,2.68
2023-02-13T05:45:41.269Z,2.67
2023-02-13T05:48:07.905Z,2.66
2023-02-13T05:50:34.598Z,2.63
2023-02-13T05:53:01.288Z,2.63
2023-02-13T05:55:27.937Z,2.61
2023-02-13T05:57:58.180Z,2.60
2023-02-13T06:00:25.621Z,2.57
2023-02-13T06:02:52.392Z,2.55
2023-02-13T06:05:19.150Z,2.54
2023-02-13T06:07:45.819Z,2.53
2023-02-13T06:10:12.473Z,2.51
2023-02-13T06:12:39.169Z,2.51
2023-02-13T06:15:06.684Z,2.48
2023-02-13T06:17:33.432Z,2.48
2023-02-13T06:20:00.124Z,2.47
2023-02-13T06:22:26.830Z,2.48
2023-02-13T06:24:53.468Z,2.49
2023-02-13T06:27:20.156Z,2.52
2023-02-13T06:29:46.832Z,2.51
2023-02-13T06:32:14.171Z,2.54
2023-02-13T06:34:40.829Z,2.58
2023-02-13T06:37:07.495Z,2.60
2023-02-13T06:39:34.829Z,2.61
2023-02-13T06:42:01.508Z,2.62
2023-02-13T06:44:28.153Z,2.63
2023-02-13T06:46:54.929Z,2.63
2023-02-13T06:49:21.622Z,2.61
2023-02-13T06:51:48.320Z,2.59
2023-02-13T06:54:15.014Z,2.56
2023-02-13T06:56:41.685Z,2.53
2023-02-13T06:59:08.443Z,2.51
2023-02-13T07:01:35.137Z,2.49
2023-02-13T07:04:01.930Z,2.48
2023-02-13T07:06:29.170Z,2.47
2023-02-13T07:08:56.054Z,2.48
2023-02-13T07:11:24.805Z,2.51
2023-02-13T07:13:51.487Z,2.51
2023-02-13T07:16:18.407Z,2.52
2023-02-13T07:18:45.149Z,2.53
2023-02-13T07:21:11.822Z,2.51
2023-02-13T07:23:38.546Z,2.53
2023-02-13T07:26:05.539Z,2.53
2023-02-13T07:28:32.511Z,2.51
2023-02-13T07:31:05.775Z,2.50
2023-02-13T07:33:33.831Z,2.50
2023-02-13T07:36:03.632Z,2.47
2023-02-13T07:38:33.557Z,2.48
2023-02-13T07:41:01.358Z,2.48
2023-02-13T07:43:28.636Z,2.49
2023-02-13T07:45:59.405Z,2.51
2023-02-13T07:48:27.569Z,2.51
2023-02-13T07:50:55.024Z,2.50
2023-02-13T07:53:22.758Z,2.50
2023-02-13T07:55:49.414Z,2.52
2023-02-13T07:58:16.133Z,2.53
2023-02-13T08:00:42.867Z,2.55
2023-02-13T08:03:12.006Z,2.57
2023-02-13T08:05:39.373Z,2.58
2023-02-13T08:08:06.160Z,2.58
2023-02-13T08:10:51.551Z,2.63
2023-02-13T08:13:18.878Z,2.66
2023-02-13T08:15:45.947Z,2.71
2023-02-13T08:18:12.734Z,2.75
2023-02-13T08:20:39.382Z,2.79
2023-02-13T08:23:07.868Z,2.83
2023-02-13T08:25:34.598Z,2.87
2023-02-13T08:28:02.000Z,2.91
2023-02-13T08:30:29.185Z,2.95
2023-02-13T08:32:55.914Z,2.99
2023-02-13T08:35:26.894Z,3.04
2023-02-13T08:37:54.022Z,3.08
2023-02-13T08:40:22.132Z,3.14
2023-02-13T08:42:49.387Z,3.19
2023-02-13T08:45:16.187Z,3.24
2023-02-13T08:47:42.887Z,3.27
2023-02-13T08:50:09.914Z,3.31
2023-02-13T08:52:36.595Z,3.37
2023-02-13T08:55:03.900Z,3.40
2023-02-13T08:57:31.366Z,3.48
2023-02-13T08:59:58.054Z,3.54
2023-02-13T09:02:24.729Z,3.60
2023-02-13T09:04:51.459Z,3.66
2023-02-13T09:07:18.174Z,3.72
2023-02-13T09:09:44.837Z,3.76
2023-02-13T09:12:11.600Z,3.82
2023-02-13T09:14:39.377Z,3.87
2023-02-13T09:17:06.344Z,3.91
2023-02-13T09:19:33.065Z,3.98
2023-02-13T09:21:59.818Z,4.01
2023-02-13T09:24:26.794Z,4.07
2023-02-13T09:26:53.460Z,4.14
2023-02-13T09:29:20.185Z,4.20
2023-02-13T09:31:46.951Z,4.28
2023-02-13T09:34:13.681Z,4.35
2023-02-13T09:36:40.421Z,4.39
2023-02-13T09:39:07.163Z,4.46
2023-02-13T09:41:43.082Z,4.52
2023-02-13T09:44:36.055Z,4.60
2023-02-13T09:47:30.463Z,4.60
2023-02-13T09:50:06.629Z,4.64
2023-02-13T09:52:38.729Z,4.69
2023-02-13T09:55:16.856Z,4.69
2023-02-13T09:57:52.650Z,4.72
2023-02-13T10:00:29.731Z,4.73
2023-02-13T10:02:59.488Z,4.69
2023-02-13T10:05:41.257Z,4.68
2023-02-13T10:08:34.979Z,4.68
2023-02-13T10:11:07.533Z,4.69
2023-02-13T10:14:11.494Z,4.72
2023-02-13T10:16:50.955Z,4.76
2023-02-13T10:19:36.486Z,4.80
2023-02-13T10:22:30.458Z,4.80
2023-02-13T10:25:17.760Z,4.79
2023-02-13T10:27:49.793Z,4.84
2023-02-13T10:30:24.521Z,4.87
2023-02-13T10:33:19.258Z,4.90
2023-02-13T10:35:48.440Z,4.92
2023-02-13T10:38:19.101Z,4.94
2023-02-13T10:40:57.887Z,4.96
2023-02-13T10:43:29.629Z,5.00
2023-02-13T10:46:02.371Z,5.03
2023-02-13T10:49:12.902Z,5.08
2023-02-13T10:51:57.011Z,5.11
2023-02-13T10:54:46.815Z,5.15
2023-02-13T10:57:30.434Z,5.18
2023-02-13T11:00:35.946Z,5.19
2023-02-13T11:03:02.926Z,5.21
2023-02-13T11:05:40.033Z,5.25
2023-02-13T11:08:22.512Z,5.30
2023-02-13T11:10:50.198Z,5.32
2023-02-13T11:13:20.563Z,5.34
2023-02-13T11:16:05.408Z,5.38
2023-02-13T11:18:38.878Z,5.42
2023-02-13T11:21:13.689Z,5.48
2023-02-13T11:23:44.631Z,5.51
2023-02-13T11:26:15.885Z,5.54
2023-02-13T11:28:51.541Z,5.56
2023-02-13T11:31:33.990Z,5.59
2023-02-13T11:34:23.741Z,5.60
2023-02-13T11:37:07.745Z,5.63
2023-02-13T11:39:34.423Z,5.62
2023-02-13T11:42:01.217Z,5.67
2023-02-13T11:44:33.059Z,5.69
2023-02-13T11:47:01.457Z,5.75
2023-02-13T11:49:32.797Z,5.77
2023-02-13T11:52:05.464Z,5.80
2023-02-13T11:54:59.027Z,5.83
2023-02-13T11:57:34.485Z,5.85
2023-02-13T12:00:20.694Z,5.86
2023-02-13T12:02:50.142Z,5.88
2023-02-13T12:05:23.123Z,5.88
2023-02-13T12:07:50.487Z,5.87
2023-02-13T12:10:20.271Z,5.88
2023-02-13T12:12:59.318Z,5.89
2023-02-13T12:15:35.194Z,5.92
2023-02-13T12:18:15.832Z,5.95
2023-02-13T12:21:06.589Z,5.97
2023-02-13T12:23:47.865Z,5.99
2023-02-13T12:26:29.688Z,6.01
2023-02-13T12:29:27.325Z,6.05
2023-02-13T12:31:59.826Z,6.05
2023-02-13T12:34:52.920Z,6.04
2023-02-13T12:37:44.649Z,6.05
2023-02-13T12:40:24.783Z,6.06
2023-02-13T12:43:19.017Z,6.05
2023-02-13T12:46:13.473Z,6.05
2023-02-13T12:48:46.273Z,6.05
2023-02-13T12:51:25.157Z,6.05
2023-02-13T12:53:58.854Z,6.03
2023-02-13T12:56:56.231Z,6.04
2023-02-13T12:59:46.239Z,6.05
2023-02-13T13:02:33.408Z,6.08
2023-02-13T13:05:12.622Z,6.09
2023-02-13T13:07:42.841Z,6.12
2023-02-13T13:10:22.084Z,6.17
2023-02-13T13:13:17.777Z,6.20
2023-02-13T13:15:56.486Z,6.23
2023-02-13T13:18:41.370Z,6.26
2023-02-13T13:21:20.420Z,6.28
2023-02-13T13:24:03.261Z,6.31
2023-02-13T13:26:43.039Z,6.33
2023-02-13T13:29:26.751Z,6.36
2023-02-13T13:32:01.532Z,6.38
2023-02-13T13:34:31.823Z,6.42
2023-02-13T13:37:13.972Z,6.41
2023-02-13T13:39:57.695Z,6.41
2023-02-13T13:42:35.570Z,6.42
2023-02-13T13:45:20.597Z,6.41
2023-02-13T13:48:05.903Z,6.43
2023-02-13T13:50:37.645Z,6.43
2023-02-13T13:53:16.131Z,6.43
2023-02-13T13:55:52.818Z,6.44
2023-02-13T13:58:46.274Z,6.44
2023-02-13T14:01:16.668Z,6.46
2023-02-13T14:03:46.069Z,6.47
2023-02-13T14:06:21.788Z,6.50
2023-02-13T14:08:49.240Z,6.52
2023-02-13T14:11:40.694Z,6.54
2023-02-13T14:14:29.364Z,6.55
2023-02-13T14:17:02.054Z,6.55
2023-02-13T14:19:40.472Z,6.54
2023-02-13T14:22:19.065Z,6.54
2023-02-13T14:24:52.600Z,6.53
2023-02-13T14:27:37.478Z,6.53
2023-02-13T14:30:07.862Z,6.53
2023-02-13T14:32:37.670Z,6.53
2023-02-13T14:35:28.315Z,6.52
2023-02-13T14:38:03.009Z,6.54
2023-02-13T14:40:44.270Z,6.54
2023-02-13T14:43:20.397Z,6.53
2023-02-13T14:45:53.648Z,6.50
2023-02-13T14:48:22.579Z,6.50
2023-02-13T14:50:52.404Z,6.47
2023-02-13T14:53:26.473Z,6.45
2023-02-13T14:56:03.302Z,6.44
2023-02-13T14:58:33.811Z,6.41
2023-02-13T15:01:21.318Z,6.37
2023-02-13T15:03:54.815Z,6.37
2023-02-13T15:06:28.572Z,6.36
2023-02-13T15:08:59.617Z,6.33
2023-02-13T15:11:43.129Z,6.31
2023-02-13T15:14:22.997Z,6.29
2023-02-13T15:17:21.997Z,6.25
2023-02-13T15:19:59.277Z,6.20
2023-02-13T15:22:37.456Z,6.18
2023-02-13T15:25:07.362Z,6.17
2023-02-13T15:27:42.700Z,6.14
2023-02-13T15:30:23.997Z,6.12
2023-02-13T15:32:57.839Z,6.08
2023-02-13T15:35:35.107Z,6.04
2023-02-13T15:38:20.845Z,5.99
2023-02-13T15:40:50.851Z,5.93
2023-02-13T15:43:49.098Z,5.88
2023-02-13T15:46:23.309Z,5.84
2023-02-13T15:48:50.700Z,5.80
2023-02-13T15:51:28.581Z,5.78
2023-02-13T15:53:57.893Z,5.76
2023-02-13T15:56:25.262Z,5.72
2023-02-13T15:58:53.764Z,5.73
2023-02-13T16:01:20.554Z,5.75
2023-02-13T16:03:49.875Z,5.78
2023-02-13T16:06:19.322Z,5.79
2023-02-13T16:08:52.350Z,5.80
2023-02-13T16:11:30.452Z,5.79
2023-02-13T16:14:08.417Z,5.77
2023-02-13T16:16:44.030Z,5.77
2023-02-13T16:19:24.373Z,5.77
2023-02-13T16:21:52.495Z,5.78
2023-02-13T16:24:19.971Z,5.77
2023-02-13T16:26:47.018Z,5.77
2023-02-13T16:29:21.242Z,5.76
2023-02-13T16:31:49.631Z,5.76
2023-02-13T16:34:30.549Z,5.77
2023-02-13T16:36:57.452Z,5.77
2023-02-13T16:39:32.739Z,5.76
2023-02-13T16:42:01.015Z,5.75
2023-02-13T16:44:31.951Z,5.75
2023-02-13T16:47:05.150Z,5.76
2023-02-13T16:49:36.847Z,5.76
2023-02-13T16:52:17.077Z,5.76
2023-02-13T16:54:59.366Z,5.74
2023-02-13T16:57:33.078Z,5.73
2023-02-13T17:00:23.760Z,5.68
2023-02-13T17:02:51.907Z,5.67
2023-02-13T17:05:28.170Z,5.65
2023-02-13T17:08:00.502Z,5.62
2023-02-13T17:10:29.026Z,5.60
2023-02-13T17:12:59.377Z,5.60
2023-02-13T17:15:28.420Z,5.58
2023-02-13T17:17:55.337Z,5.56
2023-02-13T17:20:24.782Z,5.57
2023-02-13T17:22:54.293Z,5.59
2023-02-13T17:25:24.040Z,5.57
2023-02-13T17:28:02.930Z,5.57
2023-02-13T17:30:32.483Z,5.56
2023-02-13T17:33:03.085Z,5.55
2023-02-13T17:35:29.786Z,5.60
2023-02-13T17:37:56.491Z,5.61
2023-02-13T17:40:25.546Z,5.57
2023-02-13T17:42:54.207Z,5.61
2023-02-13T17:45:23.945Z,5.63
2023-02-13T17:47:50.705Z,5.63
2023-02-13T17:50:17.748Z,5.66
2023-02-13T17:52:45.975Z,5.67
2023-02-13T17:55:31.788Z,5.66
2023-02-13T17:57:59.083Z,5.65
2023-02-13T18:00:28.386Z,5.65
2023-02-13T18:02:55.440Z,5.62
2023-02-13T18:05:22.581Z,5.62
2023-02-13T18:07:49.566Z,5.66
2023-02-13T18:10:21.712Z,5.69
2023-02-13T18:12:50.120Z,5.69
2023-02-13T18:15:17.887Z,5.68
2023-02-13T18:17:45.082Z,5.67
2023-02-13T18:20:20.667Z,5.67
2023-02-13T18:22:50.604Z,5.63
2023-02-13T18:25:18.892Z,5.62
2023-02-13T18:27:46.180Z,5.58
2023-02-13T18:30:15.619Z,5.55
2023-02-13T18:32:42.405Z,5.52
2023-02-13T18:35:09.594Z,5.51
2023-02-13T18:37:36.309Z,5.51
2023-02-13T18:40:03.098Z,5.51
2023-02-13T18:42:29.881Z,5.51
2023-02-13T18:44:56.545Z,5.52
2023-02-13T18:47:23.224Z,5.51
2023-02-13T18:49:49.997Z,5.52
2023-02-13T18:52:16.737Z,5.52
2023-02-13T18:54:43.419Z,5.55
2023-02-13T18:57:10.132Z,5.57
2023-02-13T18:59:36.864Z,5.62
2023-02-13T19:02:04.384Z,5.65
2023-02-13T19:04:31.530Z,5.71
2023-02-13T19:06:58.352Z,5.75
2023-02-13T19:09:25.054Z,5.74
2023-02-13T19:11:51.824Z,5.73
2023-02-13T19:14:18.994Z,5.72
2023-02-13T19:16:45.658Z,5.74
2023-02-13T19:19:12.606Z,5.78
2023-02-13T19:21:40.019Z,5.79
2023-02-13T19:24:09.055Z,5.81
2023-02-13T19:26:36.330Z,5.80
2023-02-13T19:29:04.304Z,5.82
2023-02-13T19:31:32.761Z,5.82
2023-02-13T19:34:03.041Z,5.84
2023-02-13T19:36:30.351Z,5.85
2023-02-13T19:39:00.079Z,5.89
2023-02-13T19:41:27.138Z,5.90
2023-02-13T19:43:53.892Z,5.90
2023-02-13T19:46:26.505Z,5.90
2023-02-13T19:48:54.027Z,5.91
2023-02-13T19:51:27.771Z,5.89
2023-02-13T19:53:58.949Z,5.91
2023-02-13T19:56:27.276Z,5.93
2023-02-13T19:58:54.280Z,5.94
2023-02-13T20:01:23.302Z,5.94
2023-02-13T20:03:50.702Z,5.97
2023-02-13T20:06:31.515Z,5.97
2023-02-13T20:08:59.945Z,5.98
2023-02-13T20:11:26.778Z,5.99
2023-02-13T20:14:00.701Z,6.00
2023-02-13T20:16:32.805Z,6.00
2023-02-13T20:19:01.872Z,5.97
2023-02-13T20:21:28.677Z,5.94
2023-02-13T20:23:55.322Z,5.93
2023-02-13T20:26:22.665Z,5.91
2023-02-13T20:28:49.370Z,5.90
2023-02-13T20:31:19.671Z,5.88
2023-02-13T20:33:46.928Z,5.89
2023-02-13T20:36:14.869Z,5.88
2023-02-13T20:38:42.263Z,5.87
2023-02-13T20:41:13.356Z,5.87
2023-02-13T20:43:40.038Z,5.86
2023-02-13T20:46:07.646Z,5.85
2023-02-13T20:48:38.781Z,5.83
2023-02-13T20:51:07.745Z,5.83
2023-02-13T20:53:35.304Z,5.82
2023-02-13T20:56:10.991Z,5.84
2023-02-13T20:58:38.607Z,5.85
2023-02-13T21:01:18.176Z,5.88
2023-02-13T21:03:47.965Z,5.88
2023-02-13T21:06:14.698Z,5.88
2023-02-13T21:08:43.566Z,5.87
2023-02-13T21:11:10.245Z,5.85
2023-02-13T21:13:36.921Z,5.85
2023-02-13T21:16:05.436Z,5.84
2023-02-13T21:18:32.149Z,5.83
2023-02-13T21:20:59.408Z,5.82
2023-02-13T21:23:26.604Z,5.80
2023-02-13T21:25:53.316Z,5.80
2023-02-13T21:28:20.405Z,5.80
2023-02-13T21:30:48.332Z,5.79
2023-02-13T21:33:15.017Z,5.80
2023-02-13T21:35:41.722Z,5.80
2023-02-13T21:38:08.374Z,5.77
2023-02-13T21:40:35.332Z,5.78
2023-02-13T21:43:02.010Z,5.79
2023-02-13T21:45:28.665Z,5.81
2023-02-13T21:47:56.675Z,5.80
2023-02-13T21:50:23.818Z,5.80
2023-02-13T21:52:50.501Z,5.80
2023-02-13T21:55:17.167Z,5.80
2023-02-13T21:57:43.854Z,5.78
2023-02-13T22:00:11.229Z,5.78
2023-02-13T22:02:38.803Z,5.75
2023-02-13T22:05:05.801Z,5.75
2023-02-13T22:07:52.423Z,5.77
2023-02-13T22:10:19.298Z,5.75
2023-02-13T22:12:50.873Z,5.73
2023-02-13T22:15:17.708Z,5.73
2023-02-13T22:17:44.457Z,5.73
2023-02-13T22:20:11.787Z,5.72
2023-02-13T22:22:38.598Z,5.69
2023-02-13T22:25:05.438Z,5.66
2023-02-13T22:27:32.231Z,5.66
2023-02-13T22:29:59.334Z,5.67
2023-02-13T22:32:25.997Z,5.68
2023-02-13T22:34:52.671Z,5.70
2023-02-13T22:37:19.374Z,5.71
2023-02-13T22:39:46.017Z,5.71
2023-02-13T22:42:12.793Z,5.69
2023-02-13T22:44:39.483Z,5.70
2023-02-13T22:47:07.329Z,5.72
2023-02-13T22:49:35.592Z,5.69
2023-02-13T22:52:02.326Z,5.69
2023-02-13T22:54:29.043Z,5.70
2023-02-13T22:56:55.713Z,5.69
2023-02-13T22:59:22.516Z,5.68
2023-02-13T23:01:49.158Z,5.69
2023-02-13T23:04:16.589Z,5.67
2023-02-13T23:06:43.492Z,5.66
2023-02-13T23:09:10.261Z,5.64
2023-02-13T23:11:55.439Z,5.65
2023-02-13T23:14:24.919Z,5.62
2023-02-13T23:17:10.264Z,5.60
2023-02-13T23:19:36.927Z,5.57
2023-02-13T23:22:03.663Z,5.54
2023-02-13T23:24:31.179Z,5.53
2023-02-13T23:26:59.258Z,5.53
2023-02-13T23:29:26.577Z,5.51
2023-02-13T23:31:53.364Z,5.52
2023-02-13T23:34:20.146Z,5.50
2023-02-13T23:36:46.970Z,5.49
2023-02-13T23:39:13.693Z,5.50
2023-02-13T23:41:40.445Z,5.48
2023-02-13T23:44:07.130Z,5.46
2023-02-13T23:46:34.512Z,5.43
2023-02-13T23:49:01.211Z,5.42
2023-02-13T23:51:29.920Z,5.41
2023-02-13T23:53:57.479Z,5.41
2023-02-13T23:56:26.029Z,5.39
2023-02-13T23:58:53.303Z,5.36
